sensor_id;sensor_type;location;lat;lon;timestamp;P1;durP1;ratioP1;P2;durP2;ratioP2
15454;SDS011;21057;51.024;7.540;2023-02-04T00:00:07;27.07;;;24.93;;
15454;SDS011;21057;51.024;7.540;2023-02-04T00:02:38;27.23;;;25.57;;
15454;SDS011;21057;51.024;7.540;2023-02-04T00:18:35;28.40;;;26.00;;
15454;SDS011;21057;51.024;7.540;2023-02-04T00:21:02;29.90;;;27.47;;
15454;SDS011;21057;51.024;7.540;2023-02-04T00:23:29;29.40;;;27.37;;
15454;SDS011;21057;51.024;7.540;2023-02-04T00:25:56;30.27;;;26.23;;
15454;SDS011;21057;51.024;7.540;2023-02-04T00:28:22;28.90;;;26.10;;
15454;SDS011;21057;51.024;7.540;2023-02-04T00:30:49;28.67;;;25.57;;
15454;SDS011;21057;51.024;7.540;2023-02-04T00:33:16;28.63;;;26.57;;
15454;SDS011;21057;51.024;7.540;2023-02-04T00:35:45;27.33;;;25.60;;
15454;SDS011;21057;51.024;7.540;2023-02-04T00:38:13;29.13;;;26.20;;
15454;SDS011;21057;51.024;7.540;2023-02-04T00:40:40;31.60;;;29.03;;
15454;SDS011;21057;51.024;7.540;2023-02-04T00:43:07;29.97;;;27.83;;
15454;SDS011;21057;51.024;7.540;2023-02-04T00:45:33;27.30;;;25.40;;
15454;SDS011;21057;51.024;7.540;2023-02-04T00:48:00;29.33;;;26.90;;
15454;SDS011;21057;51.024;7.540;2023-02-04T00:50:27;29.27;;;26.83;;
15454;SDS011;21057;51.024;7.540;2023-02-04T00:52:55;29.27;;;27.20;;
15454;SDS011;21057;51.024;7.540;2023-02-04T00:55:25;30.03;;;28.17;;
15454;SDS011;21057;51.024;7.540;2023-02-04T00:57:52;31.93;;;29.50;;
15454;SDS011;21057;51.024;7.540;2023-02-04T01:00:19;30.33;;;28.07;;
15454;SDS011;21057;51.024;7.540;2023-02-04T01:02:46;29.17;;;27.33;;
15454;SDS011;21057;51.024;7.540;2023-02-04T01:05:13;30.17;;;27.63;;
15454;SDS011;21057;51.024;7.540;2023-02-04T01:07:40;28.97;;;26.53;;
15454;SDS011;21057;51.024;7.540;2023-02-04T01:10:10;31.10;;;28.10;;
15454;SDS011;21057;51.024;7.540;2023-02-04T01:12:37;30.03;;;27.53;;
15454;SDS011;21057;51.024;7.540;2023-02-04T01:15:04;28.17;;;26.23;;
15454;SDS011;21057;51.024;7.540;2023-02-04T01:17:38;28.83;;;26.20;;
15454;SDS011;21057;51.024;7.540;2023-02-04T01:20:06;29.50;;;26.97;;
15454;SDS011;21057;51.024;7.540;2023-02-04T01:22:35;30.47;;;27.37;;
15454;SDS011;21057;51.024;7.540;2023-02-04T01:25:02;29.67;;;27.07;;
15454;SDS011;21057;51.024;7.540;2023-02-04T01:27:37;30.10;;;27.83;;
15454;SDS011;21057;51.024;7.540;2023-02-04T01:30:04;28.33;;;26.50;;
15454;SDS011;21057;51.024;7.540;2023-02-04T01:32:31;29.33;;;27.07;;
15454;SDS011;21057;51.024;7.540;2023-02-04T01:35:04;31.10;;;28.50;;
15454;SDS011;21057;51.024;7.540;2023-02-04T01:37:32;29.83;;;27.07;;
15454;SDS011;21057;51.024;7.540;2023-02-04T01:39:59;30.47;;;28.17;;
15454;SDS011;21057;51.024;7.540;2023-02-04T01:42:25;32.30;;;28.17;;
15454;SDS011;21057;51.024;7.540;2023-02-04T01:44:58;30.17;;;27.43;;
15454;SDS011;21057;51.024;7.540;2023-02-04T01:47:25;28.80;;;26.57;;
15454;SDS011;21057;51.024;7.540;2023-02-04T01:49:53;32.30;;;27.30;;
15454;SDS011;21057;51.024;7.540;2023-02-04T01:52:21;29.70;;;27.37;;
15454;SDS011;21057;51.024;7.540;2023-02-04T01:54:48;30.30;;;27.80;;
15454;SDS011;21057;51.024;7.540;2023-02-04T01:57:16;29.17;;;26.87;;
15454;SDS011;21057;51.024;7.540;2023-02-04T01:59:44;29.87;;;27.50;;
15454;SDS011;21057;51.024;7.540;2023-02-04T02:05:08;30.60;;;27.60;;
15454;SDS011;21057;51.024;7.540;2023-02-04T02:07:37;28.13;;;26.23;;
15454;SDS011;21057;51.024;7.540;2023-02-04T02:10:05;32.33;;;26.30;;
15454;SDS011;21057;51.024;7.540;2023-02-04T02:12:35;28.50;;;25.50;;
15454;SDS011;21057;51.024;7.540;2023-02-04T02:15:03;28.10;;;25.90;;
15454;SDS011;21057;51.024;7.540;2023-02-04T02:17:30;28.53;;;26.40;;
15454;SDS011;21057;51.024;7.540;2023-02-04T02:19:59;31.30;;;28.30;;
15454;SDS011;21057;51.024;7.540;2023-02-04T02:22:28;30.20;;;27.30;;
15454;SDS011;21057;51.024;7.540;2023-02-04T02:25:06;29.17;;;27.17;;
15454;SDS011;21057;51.024;7.540;2023-02-04T02:27:35;29.50;;;27.23;;
15454;SDS011;21057;51.024;7.540;2023-02-04T02:30:03;28.33;;;25.90;;
15454;SDS011;21057;51.024;7.540;2023-02-04T02:32:31;29.10;;;26.90;;
15454;SDS011;21057;51.024;7.540;2023-02-04T02:34:59;31.50;;;28.20;;
15454;SDS011;21057;51.024;7.540;2023-02-04T02:37:26;30.43;;;27.30;;
15454;SDS011;21057;51.024;7.540;2023-02-04T02:39:53;29.93;;;27.43;;
15454;SDS011;21057;51.024;7.540;2023-02-04T02:42:21;29.23;;;27.27;;
15454;SDS011;21057;51.024;7.540;2023-02-04T02:44:48;30.07;;;27.70;;
15454;SDS011;21057;51.024;7.540;2023-02-04T02:47:16;31.43;;;28.93;;
15454;SDS011;21057;51.024;7.540;2023-02-04T02:49:45;30.87;;;28.30;;
15454;SDS011;21057;51.024;7.540;2023-02-04T02:52:14;32.00;;;28.87;;
15454;SDS011;21057;51.024;7.540;2023-02-04T02:54:40;29.67;;;27.37;;
15454;SDS011;21057;51.024;7.540;2023-02-04T02:57:11;29.63;;;27.03;;
15454;SDS011;21057;51.024;7.540;2023-02-04T02:59:41;30.60;;;28.40;;
15454;SDS011;21057;51.024;7.540;2023-02-04T03:02:08;34.13;;;31.00;;
15454;SDS011;21057;51.024;7.540;2023-02-04T03:04:40;30.10;;;27.80;;
15454;SDS011;21057;51.024;7.540;2023-02-04T03:07:09;30.37;;;27.93;;
15454;SDS011;21057;51.024;7.540;2023-02-04T03:09:37;31.60;;;28.30;;
15454;SDS011;21057;51.024;7.540;2023-02-04T03:12:05;31.63;;;28.43;;
15454;SDS011;21057;51.024;7.540;2023-02-04T03:14:32;31.97;;;29.30;;
15454;SDS011;21057;51.024;7.540;2023-02-04T03:17:04;29.40;;;27.47;;
15454;SDS011;21057;51.024;7.540;2023-02-04T03:19:37;36.60;;;29.77;;
15454;SDS011;21057;51.024;7.540;2023-02-04T03:22:04;31.10;;;28.43;;
15454;SDS011;21057;51.024;7.540;2023-02-04T03:24:33;33.57;;;30.80;;
15454;SDS011;21057;51.024;7.540;2023-02-04T03:27:01;31.63;;;28.93;;
15454;SDS011;21057;51.024;7.540;2023-02-04T03:29:29;31.23;;;28.57;;
15454;SDS011;21057;51.024;7.540;2023-02-04T03:31:56;33.20;;;29.77;;
15454;SDS011;21057;51.024;7.540;2023-02-04T03:34:25;33.53;;;30.80;;
15454;SDS011;21057;51.024;7.540;2023-02-04T03:36:52;32.50;;;28.90;;
15454;SDS011;21057;51.024;7.540;2023-02-04T03:39:19;33.30;;;30.40;;
15454;SDS011;21057;51.024;7.540;2023-02-04T03:41:50;32.03;;;29.13;;
15454;SDS011;21057;51.024;7.540;2023-02-04T03:44:18;31.60;;;28.17;;
15454;SDS011;21057;51.024;7.540;2023-02-04T03:46:46;30.10;;;27.20;;
15454;SDS011;21057;51.024;7.540;2023-02-04T03:49:13;32.70;;;29.77;;
15454;SDS011;21057;51.024;7.540;2023-02-04T03:51:41;33.07;;;30.07;;
15454;SDS011;21057;51.024;7.540;2023-02-04T03:54:08;31.53;;;28.87;;
15454;SDS011;21057;51.024;7.540;2023-02-04T03:56:35;32.03;;;29.00;;
15454;SDS011;21057;51.024;7.540;2023-02-04T03:59:02;32.17;;;29.13;;
15454;SDS011;21057;51.024;7.540;2023-02-04T04:01:29;31.90;;;29.10;;
15454;SDS011;21057;51.024;7.540;2023-02-04T04:03:56;31.73;;;29.13;;
15454;SDS011;21057;51.024;7.540;2023-02-04T04:06:23;33.13;;;30.33;;
15454;SDS011;21057;51.024;7.540;2023-02-04T04:08:51;32.30;;;29.33;;
15454;SDS011;21057;51.024;7.540;2023-02-04T04:11:18;32.67;;;29.53;;
15454;SDS011;21057;51.024;7.540;2023-02-04T04:13:46;30.87;;;28.07;;
15454;SDS011;21057;51.024;7.540;2023-02-04T04:16:12;30.27;;;28.00;;
15454;SDS011;21057;51.024;7.540;2023-02-04T04:18:40;31.23;;;28.40;;
15454;SDS011;21057;51.024;7.540;2023-02-04T04:21:07;32.43;;;29.93;;
15454;SDS011;21057;51.024;7.540;2023-02-04T04:23:34;33.00;;;30.83;;
15454;SDS011;21057;51.024;7.540;2023-02-04T04:26:02;35.73;;;32.67;;
15454;SDS011;21057;51.024;7.540;2023-02-04T04:28:29;36.57;;;33.77;;
15454;SDS011;21057;51.024;7.540;2023-02-04T04:30:57;34.77;;;32.40;;
15454;SDS011;21057;51.024;7.540;2023-02-04T04:33:24;41.53;;;33.33;;
15454;SDS011;21057;51.024;7.540;2023-02-04T04:35:51;35.73;;;31.97;;
15454;SDS011;21057;51.024;7.540;2023-02-04T04:38:18;35.97;;;30.83;;
15454;SDS011;21057;51.024;7.540;2023-02-04T04:40:51;33.83;;;31.57;;
15454;SDS011;21057;51.024;7.540;2023-02-04T04:43:19;34.73;;;31.90;;
15454;SDS011;21057;51.024;7.540;2023-02-04T04:45:53;33.60;;;30.30;;
15454;SDS011;21057;51.024;7.540;2023-02-04T04:48:20;33.90;;;31.13;;
15454;SDS011;21057;51.024;7.540;2023-02-04T04:50:47;33.73;;;30.77;;
15454;SDS011;21057;51.024;7.540;2023-02-04T04:53:14;33.17;;;30.07;;
15454;SDS011;21057;51.024;7.540;2023-02-04T04:55:44;33.93;;;30.90;;
15454;SDS011;21057;51.024;7.540;2023-02-04T04:58:11;33.33;;;30.83;;
15454;SDS011;21057;51.024;7.540;2023-02-04T05:00:39;34.90;;;31.47;;
15454;SDS011;21057;51.024;7.540;2023-02-04T05:03:07;35.00;;;31.37;;
15454;SDS011;21057;51.024;7.540;2023-02-04T05:05:34;35.87;;;33.50;;
15454;SDS011;21057;51.024;7.540;2023-02-04T05:08:04;35.97;;;32.50;;
15454;SDS011;21057;51.024;7.540;2023-02-04T05:10:34;33.60;;;30.80;;
15454;SDS011;21057;51.024;7.540;2023-02-04T05:13:02;32.37;;;30.07;;
15454;SDS011;21057;51.024;7.540;2023-02-04T05:15:30;33.17;;;30.50;;
15454;SDS011;21057;51.024;7.540;2023-02-04T05:17:58;36.80;;;33.17;;
15454;SDS011;21057;51.024;7.540;2023-02-04T05:20:32;35.23;;;32.40;;
15454;SDS011;21057;51.024;7.540;2023-02-04T05:22:59;35.27;;;32.10;;
15454;SDS011;21057;51.024;7.540;2023-02-04T05:25:26;33.60;;;31.53;;
15454;SDS011;21057;51.024;7.540;2023-02-04T05:27:54;35.70;;;32.03;;
15454;SDS011;21057;51.024;7.540;2023-02-04T05:30:21;32.47;;;29.83;;
15454;SDS011;21057;51.024;7.540;2023-02-04T05:32:48;33.73;;;31.40;;
15454;SDS011;21057;51.024;7.540;2023-02-04T05:35:16;34.83;;;32.43;;
15454;SDS011;21057;51.024;7.540;2023-02-04T05:37:43;35.30;;;32.60;;
15454;SDS011;21057;51.024;7.540;2023-02-04T05:40:12;34.07;;;31.77;;
15454;SDS011;21057;51.024;7.540;2023-02-04T05:42:39;36.63;;;32.30;;
15454;SDS011;21057;51.024;7.540;2023-02-04T05:45:06;33.40;;;30.23;;
15454;SDS011;21057;51.024;7.540;2023-02-04T05:47:35;32.67;;;30.33;;
15454;SDS011;21057;51.024;7.540;2023-02-04T05:50:02;33.80;;;31.37;;
15454;SDS011;21057;51.024;7.540;2023-02-04T05:52:31;37.00;;;34.30;;
15454;SDS011;21057;51.024;7.540;2023-02-04T05:54:58;35.83;;;32.93;;
15454;SDS011;21057;51.024;7.540;2023-02-04T05:57:26;34.43;;;31.97;;
15454;SDS011;21057;51.024;7.540;2023-02-04T05:59:53;35.67;;;33.03;;
15454;SDS011;21057;51.024;7.540;2023-02-04T06:02:20;35.07;;;32.67;;
15454;SDS011;21057;51.024;7.540;2023-02-04T06:04:46;35.03;;;32.03;;
15454;SDS011;21057;51.024;7.540;2023-02-04T06:07:13;33.93;;;31.47;;
15454;SDS011;21057;51.024;7.540;2023-02-04T06:09:41;37.97;;;34.37;;
15454;SDS011;21057;51.024;7.540;2023-02-04T06:12:08;35.23;;;32.30;;
15454;SDS011;21057;51.024;7.540;2023-02-04T06:14:35;34.40;;;32.00;;
15454;SDS011;21057;51.024;7.540;2023-02-04T06:17:02;34.40;;;32.20;;
15454;SDS011;21057;51.024;7.540;2023-02-04T06:19:32;34.30;;;32.23;;
15454;SDS011;21057;51.024;7.540;2023-02-04T06:21:59;36.80;;;33.60;;
15454;SDS011;21057;51.024;7.540;2023-02-04T06:24:27;35.70;;;33.10;;
15454;SDS011;21057;51.024;7.540;2023-02-04T06:26:55;36.30;;;33.30;;
15454;SDS011;21057;51.024;7.540;2023-02-04T06:29:23;35.87;;;32.80;;
15454;SDS011;21057;51.024;7.540;2023-02-04T06:31:50;36.03;;;33.53;;
15454;SDS011;21057;51.024;7.540;2023-02-04T06:34:17;38.50;;;35.73;;
15454;SDS011;21057;51.024;7.540;2023-02-04T06:36:44;37.07;;;34.43;;
15454;SDS011;21057;51.024;7.540;2023-02-04T06:39:13;37.53;;;34.23;;
15454;SDS011;21057;51.024;7.540;2023-02-04T06:41:40;39.47;;;33.90;;
15454;SDS011;21057;51.024;7.540;2023-02-04T06:44:08;34.40;;;31.60;;
15454;SDS011;21057;51.024;7.540;2023-02-04T06:46:35;38.40;;;35.17;;
15454;SDS011;21057;51.024;7.540;2023-02-04T06:49:02;35.10;;;32.37;;
15454;SDS011;21057;51.024;7.540;2023-02-04T06:51:28;34.77;;;32.47;;
15454;SDS011;21057;51.024;7.540;2023-02-04T06:53:55;37.13;;;33.70;;
15454;SDS011;21057;51.024;7.540;2023-02-04T06:56:24;37.57;;;35.03;;
15454;SDS011;21057;51.024;7.540;2023-02-04T06:58:54;36.47;;;33.70;;
15454;SDS011;21057;51.024;7.540;2023-02-04T07:01:22;38.43;;;35.47;;
15454;SDS011;21057;51.024;7.540;2023-02-04T07:03:51;39.27;;;36.07;;
15454;SDS011;21057;51.024;7.540;2023-02-04T07:06:18;38.17;;;35.20;;
15454;SDS011;21057;51.024;7.540;2023-02-04T07:08:47;35.97;;;32.97;;
15454;SDS011;21057;51.024;7.540;2023-02-04T07:11:14;36.47;;;32.77;;
15454;SDS011;21057;51.024;7.540;2023-02-04T07:13:41;38.17;;;34.90;;
15454;SDS011;21057;51.024;7.540;2023-02-04T07:16:08;41.70;;;37.90;;
15454;SDS011;21057;51.024;7.540;2023-02-04T07:18:37;39.67;;;36.23;;
15454;SDS011;21057;51.024;7.540;2023-02-04T07:21:04;39.47;;;36.20;;
15454;SDS011;21057;51.024;7.540;2023-02-04T07:23:31;43.27;;;35.17;;
15454;SDS011;21057;51.024;7.540;2023-02-04T07:25:58;38.07;;;34.27;;
15454;SDS011;21057;51.024;7.540;2023-02-04T07:28:25;35.50;;;32.30;;
15454;SDS011;21057;51.024;7.540;2023-02-04T07:30:52;39.10;;;35.77;;
15454;SDS011;21057;51.024;7.540;2023-02-04T07:33:23;37.50;;;32.97;;
15454;SDS011;21057;51.024;7.540;2023-02-04T07:36:08;38.43;;;35.03;;
15454;SDS011;21057;51.024;7.540;2023-02-04T07:38:35;36.13;;;33.67;;
15454;SDS011;21057;51.024;7.540;2023-02-04T07:41:01;37.17;;;33.33;;
15454;SDS011;21057;51.024;7.540;2023-02-04T07:43:29;35.20;;;32.63;;
15454;SDS011;21057;51.024;7.540;2023-02-04T07:45:57;37.27;;;33.87;;
15454;SDS011;21057;51.024;7.540;2023-02-04T07:48:25;36.90;;;33.63;;
15454;SDS011;21057;51.024;7.540;2023-02-04T07:50:59;35.73;;;32.73;;
15454;SDS011;21057;51.024;7.540;2023-02-04T07:53:28;36.17;;;32.63;;
15454;SDS011;21057;51.024;7.540;2023-02-04T07:55:55;35.70;;;33.10;;
15454;SDS011;21057;51.024;7.540;2023-02-04T07:58:22;34.43;;;31.67;;
15454;SDS011;21057;51.024;7.540;2023-02-04T08:00:48;38.20;;;34.90;;
15454;SDS011;21057;51.024;7.540;2023-02-04T08:03:16;36.70;;;34.13;;
15454;SDS011;21057;51.024;7.540;2023-02-04T08:05:43;36.07;;;33.00;;
15454;SDS011;21057;51.024;7.540;2023-02-04T08:08:11;40.57;;;34.43;;
15454;SDS011;21057;51.024;7.540;2023-02-04T08:10:39;39.87;;;36.17;;
15454;SDS011;21057;51.024;7.540;2023-02-04T08:13:08;37.30;;;34.60;;
15454;SDS011;21057;51.024;7.540;2023-02-04T08:15:37;39.93;;;36.03;;
15454;SDS011;21057;51.024;7.540;2023-02-04T08:18:04;35.77;;;32.00;;
15454;SDS011;21057;51.024;7.540;2023-02-04T08:20:31;38.53;;;35.03;;
15454;SDS011;21057;51.024;7.540;2023-02-04T08:22:58;59.93;;;35.60;;
15454;SDS011;21057;51.024;7.540;2023-02-04T08:25:24;36.37;;;33.67;;
15454;SDS011;21057;51.024;7.540;2023-02-04T08:27:56;36.20;;;32.57;;
15454;SDS011;21057;51.024;7.540;2023-02-04T08:30:23;36.77;;;33.63;;
15454;SDS011;21057;51.024;7.540;2023-02-04T08:32:50;38.47;;;34.17;;
15454;SDS011;21057;51.024;7.540;2023-02-04T08:35:17;40.60;;;36.60;;
15454;SDS011;21057;51.024;7.540;2023-02-04T08:37:44;38.93;;;35.40;;
15454;SDS011;21057;51.024;7.540;2023-02-04T08:40:11;37.53;;;33.53;;
15454;SDS011;21057;51.024;7.540;2023-02-04T08:42:43;36.33;;;32.93;;
15454;SDS011;21057;51.024;7.540;2023-02-04T08:45:13;37.53;;;34.77;;
15454;SDS011;21057;51.024;7.540;2023-02-04T08:47:42;40.63;;;37.27;;
15454;SDS011;21057;51.024;7.540;2023-02-04T08:50:09;38.70;;;35.80;;
15454;SDS011;21057;51.024;7.540;2023-02-04T08:52:36;39.57;;;36.27;;
15454;SDS011;21057;51.024;7.540;2023-02-04T08:55:03;37.17;;;33.87;;
15454;SDS011;21057;51.024;7.540;2023-02-04T08:57:32;38.97;;;35.00;;
15454;SDS011;21057;51.024;7.540;2023-02-04T08:59:59;39.60;;;35.97;;
15454;SDS011;21057;51.024;7.540;2023-02-04T09:02:27;38.33;;;33.50;;
15454;SDS011;21057;51.024;7.540;2023-02-04T09:04:54;35.27;;;32.40;;
15454;SDS011;21057;51.024;7.540;2023-02-04T09:07:28;38.27;;;34.97;;
15454;SDS011;21057;51.024;7.540;2023-02-04T09:09:55;37.80;;;34.27;;
15454;SDS011;21057;51.024;7.540;2023-02-04T09:12:22;33.10;;;30.70;;
15454;SDS011;21057;51.024;7.540;2023-02-04T09:14:49;34.57;;;31.53;;
15454;SDS011;21057;51.024;7.540;2023-02-04T09:17:18;34.00;;;30.80;;
15454;SDS011;21057;51.024;7.540;2023-02-04T09:19:51;33.67;;;30.73;;
15454;SDS011;21057;51.024;7.540;2023-02-04T09:22:18;32.27;;;29.53;;
15454;SDS011;21057;51.024;7.540;2023-02-04T09:24:44;38.63;;;31.43;;
15454;SDS011;21057;51.024;7.540;2023-02-04T09:27:11;32.77;;;29.27;;
15454;SDS011;21057;51.024;7.540;2023-02-04T09:29:38;31.50;;;28.83;;
15454;SDS011;21057;51.024;7.540;2023-02-04T09:32:06;31.30;;;28.27;;
15454;SDS011;21057;51.024;7.540;2023-02-04T09:34:34;34.33;;;28.73;;
15454;SDS011;21057;51.024;7.540;2023-02-04T09:37:02;31.90;;;29.10;;
15454;SDS011;21057;51.024;7.540;2023-02-04T09:39:29;34.13;;;30.30;;
15454;SDS011;21057;51.024;7.540;2023-02-04T09:41:57;35.07;;;27.80;;
15454;SDS011;21057;51.024;7.540;2023-02-04T09:44:25;31.90;;;28.77;;
15454;SDS011;21057;51.024;7.540;2023-02-04T09:46:54;31.23;;;28.73;;
15454;SDS011;21057;51.024;7.540;2023-02-04T09:49:23;32.20;;;28.80;;
15454;SDS011;21057;51.024;7.540;2023-02-04T09:51:51;33.40;;;29.47;;
15454;SDS011;21057;51.024;7.540;2023-02-04T09:54:20;34.83;;;28.33;;
15454;SDS011;21057;51.024;7.540;2023-02-04T09:56:48;32.07;;;29.50;;
15454;SDS011;21057;51.024;7.540;2023-02-04T09:59:16;32.63;;;29.33;;
15454;SDS011;21057;51.024;7.540;2023-02-04T10:01:45;29.80;;;27.47;;
15454;SDS011;21057;51.024;7.540;2023-02-04T10:04:16;28.90;;;26.37;;
15454;SDS011;21057;51.024;7.540;2023-02-04T10:06:44;30.80;;;26.97;;
15454;SDS011;21057;51.024;7.540;2023-02-04T10:09:13;31.43;;;28.20;;
15454;SDS011;21057;51.024;7.540;2023-02-04T10:11:45;29.77;;;27.13;;
15454;SDS011;21057;51.024;7.540;2023-02-04T10:14:21;31.13;;;27.97;;
15454;SDS011;21057;51.024;7.540;2023-02-04T10:16:56;30.13;;;27.00;;
15454;SDS011;21057;51.024;7.540;2023-02-04T10:19:25;30.67;;;28.00;;
15454;SDS011;21057;51.024;7.540;2023-02-04T10:24:26;31.03;;;27.97;;
15454;SDS011;21057;51.024;7.540;2023-02-04T10:27:04;27.33;;;24.57;;
15454;SDS011;21057;51.024;7.540;2023-02-04T10:29:33;26.73;;;24.60;;
15454;SDS011;21057;51.024;7.540;2023-02-04T10:32:00;27.70;;;24.10;;
15454;SDS011;21057;51.024;7.540;2023-02-04T10:34:31;27.07;;;24.67;;
15454;SDS011;21057;51.024;7.540;2023-02-04T10:37:10;27.60;;;24.77;;
15454;SDS011;21057;51.024;7.540;2023-02-04T10:39:44;28.77;;;25.10;;
15454;SDS011;21057;51.024;7.540;2023-02-04T10:42:19;29.23;;;26.23;;
15454;SDS011;21057;51.024;7.540;2023-02-04T10:44:48;35.43;;;26.13;;
15454;SDS011;21057;51.024;7.540;2023-02-04T10:47:16;27.60;;;24.73;;
15454;SDS011;21057;51.024;7.540;2023-02-04T10:49:51;27.03;;;24.77;;
15454;SDS011;21057;51.024;7.540;2023-02-04T10:52:20;27.20;;;24.33;;
15454;SDS011;21057;51.024;7.540;2023-02-04T10:54:50;27.67;;;24.07;;
15454;SDS011;21057;51.024;7.540;2023-02-04T10:57:21;31.23;;;25.23;;
15454;SDS011;21057;51.024;7.540;2023-02-04T10:59:50;27.10;;;24.70;;
15454;SDS011;21057;51.024;7.540;2023-02-04T11:02:30;25.63;;;23.73;;
15454;SDS011;21057;51.024;7.540;2023-02-04T11:05:05;25.67;;;22.60;;
15454;SDS011;21057;51.024;7.540;2023-02-04T11:07:37;30.47;;;24.97;;
15454;SDS011;21057;51.024;7.540;2023-02-04T11:10:04;25.60;;;23.00;;
15454;SDS011;21057;51.024;7.540;2023-02-04T11:12:39;25.47;;;22.97;;
15454;SDS011;21057;51.024;7.540;2023-02-04T11:18:05;25.43;;;23.37;;
15454;SDS011;21057;51.024;7.540;2023-02-04T11:20:35;28.87;;;22.47;;
15454;SDS011;21057;51.024;7.540;2023-02-04T11:26:02;25.53;;;23.53;;
15454;SDS011;21057;51.024;7.540;2023-02-04T11:31:24;27.20;;;22.10;;
15454;SDS011;21057;51.024;7.540;2023-02-04T11:37:12;24.93;;;22.57;;
15454;SDS011;21057;51.024;7.540;2023-02-04T11:39:44;26.07;;;23.60;;
15454;SDS011;21057;51.024;7.540;2023-02-04T11:42:20;29.63;;;22.43;;
15454;SDS011;21057;51.024;7.540;2023-02-04T11:44:51;24.43;;;22.20;;
15454;SDS011;21057;51.024;7.540;2023-02-04T11:47:21;22.77;;;21.03;;
15454;SDS011;21057;51.024;7.540;2023-02-04T11:49:55;24.83;;;22.30;;
15454;SDS011;21057;51.024;7.540;2023-02-04T11:52:34;23.37;;;21.43;;
15454;SDS011;21057;51.024;7.540;2023-02-04T11:55:03;24.07;;;21.80;;
15454;SDS011;21057;51.024;7.540;2023-02-04T11:57:36;24.40;;;22.07;;
15454;SDS011;21057;51.024;7.540;2023-02-04T12:00:11;23.03;;;20.90;;
15454;SDS011;21057;51.024;7.540;2023-02-04T12:02:42;24.20;;;21.60;;
15454;SDS011;21057;51.024;7.540;2023-02-04T12:05:12;23.30;;;21.47;;
15454;SDS011;21057;51.024;7.540;2023-02-04T12:07:39;23.30;;;21.17;;
15454;SDS011;21057;51.024;7.540;2023-02-04T12:10:13;23.80;;;21.77;;
15454;SDS011;21057;51.024;7.540;2023-02-04T12:12:49;22.73;;;21.17;;
15454;SDS011;21057;51.024;7.540;2023-02-04T12:15:21;23.73;;;21.90;;
15454;SDS011;21057;51.024;7.540;2023-02-04T12:18:08;24.50;;;22.23;;
15454;SDS011;21057;51.024;7.540;2023-02-04T12:20:37;22.60;;;21.10;;
15454;SDS011;21057;51.024;7.540;2023-02-04T12:23:05;23.50;;;21.60;;
15454;SDS011;21057;51.024;7.540;2023-02-04T12:25:32;24.87;;;22.33;;
15454;SDS011;21057;51.024;7.540;2023-02-04T12:28:01;23.97;;;21.90;;
15454;SDS011;21057;51.024;7.540;2023-02-04T12:30:29;23.13;;;21.50;;
15454;SDS011;21057;51.024;7.540;2023-02-04T12:32:59;24.23;;;21.97;;
15454;SDS011;21057;51.024;7.540;2023-02-04T12:35:26;22.00;;;20.33;;
15454;SDS011;21057;51.024;7.540;2023-02-04T12:37:53;23.70;;;22.07;;
15454;SDS011;21057;51.024;7.540;2023-02-04T12:40:21;22.83;;;21.03;;
15454;SDS011;21057;51.024;7.540;2023-02-04T12:42:48;23.13;;;21.30;;
15454;SDS011;21057;51.024;7.540;2023-02-04T12:45:16;21.33;;;19.50;;
15454;SDS011;21057;51.024;7.540;2023-02-04T12:50:15;22.37;;;20.40;;
15454;SDS011;21057;51.024;7.540;2023-02-04T12:52:46;22.80;;;21.07;;
15454;SDS011;21057;51.024;7.540;2023-02-04T12:55:14;22.13;;;20.53;;
15454;SDS011;21057;51.024;7.540;2023-02-04T12:57:41;23.07;;;20.83;;
15454;SDS011;21057;51.024;7.540;2023-02-04T13:00:10;21.67;;;20.17;;
15454;SDS011;21057;51.024;7.540;2023-02-04T13:02:38;23.23;;;21.43;;
15454;SDS011;21057;51.024;7.540;2023-02-04T13:05:07;22.73;;;20.63;;
15454;SDS011;21057;51.024;7.540;2023-02-04T13:07:34;22.30;;;20.63;;
15454;SDS011;21057;51.024;7.540;2023-02-04T13:10:01;23.43;;;21.60;;
15454;SDS011;21057;51.024;7.540;2023-02-04T13:12:28;23.13;;;20.83;;
15454;SDS011;21057;51.024;7.540;2023-02-04T13:14:55;22.97;;;20.73;;
15454;SDS011;21057;51.024;7.540;2023-02-04T13:17:22;22.07;;;20.13;;
15454;SDS011;21057;51.024;7.540;2023-02-04T13:19:52;22.20;;;20.50;;
15454;SDS011;21057;51.024;7.540;2023-02-04T13:22:20;21.37;;;19.77;;
15454;SDS011;21057;51.024;7.540;2023-02-04T13:24:47;22.50;;;20.57;;
15454;SDS011;21057;51.024;7.540;2023-02-04T13:27:14;23.53;;;21.23;;
15454;SDS011;21057;51.024;7.540;2023-02-04T13:29:43;21.67;;;20.03;;
15454;SDS011;21057;51.024;7.540;2023-02-04T13:32:11;22.63;;;21.03;;
15454;SDS011;21057;51.024;7.540;2023-02-04T13:34:38;23.50;;;21.47;;
15454;SDS011;21057;51.024;7.540;2023-02-04T13:37:06;21.97;;;20.10;;
15454;SDS011;21057;51.024;7.540;2023-02-04T13:39:35;22.50;;;20.23;;
15454;SDS011;21057;51.024;7.540;2023-02-04T13:42:02;21.70;;;20.27;;
15454;SDS011;21057;51.024;7.540;2023-02-04T13:44:28;22.17;;;20.43;;
15454;SDS011;21057;51.024;7.540;2023-02-04T13:46:55;22.77;;;20.77;;
15454;SDS011;21057;51.024;7.540;2023-02-04T13:49:22;21.70;;;20.00;;
15454;SDS011;21057;51.024;7.540;2023-02-04T13:51:49;21.63;;;20.03;;
15454;SDS011;21057;51.024;7.540;2023-02-04T13:54:16;22.53;;;20.33;;
15454;SDS011;21057;51.024;7.540;2023-02-04T13:56:44;21.50;;;19.57;;
15454;SDS011;21057;51.024;7.540;2023-02-04T13:59:13;22.03;;;20.33;;
15454;SDS011;21057;51.024;7.540;2023-02-04T14:01:40;22.53;;;20.70;;
15454;SDS011;21057;51.024;7.540;2023-02-04T14:04:07;23.60;;;21.30;;
15454;SDS011;21057;51.024;7.540;2023-02-04T14:06:34;21.13;;;19.60;;
15454;SDS011;21057;51.024;7.540;2023-02-04T14:09:07;21.70;;;20.30;;
15454;SDS011;21057;51.024;7.540;2023-02-04T14:11:35;21.30;;;19.70;;
15454;SDS011;21057;51.024;7.540;2023-02-04T14:14:04;21.90;;;20.00;;
15454;SDS011;21057;51.024;7.540;2023-02-04T14:16:31;22.93;;;20.87;;
15454;SDS011;21057;51.024;7.540;2023-02-04T14:18:58;22.33;;;20.47;;
15454;SDS011;21057;51.024;7.540;2023-02-04T14:21:27;21.80;;;20.17;;
15454;SDS011;21057;51.024;7.540;2023-02-04T14:23:54;23.30;;;21.00;;
15454;SDS011;21057;51.024;7.540;2023-02-04T14:26:23;22.63;;;20.93;;
15454;SDS011;21057;51.024;7.540;2023-02-04T14:28:51;22.60;;;20.80;;
15454;SDS011;21057;51.024;7.540;2023-02-04T14:31:19;24.37;;;21.80;;
15454;SDS011;21057;51.024;7.540;2023-02-04T14:33:46;24.20;;;21.90;;
15454;SDS011;21057;51.024;7.540;2023-02-04T14:36:14;23.57;;;21.27;;
15454;SDS011;21057;51.024;7.540;2023-02-04T14:38:41;24.60;;;22.13;;
15454;SDS011;21057;51.024;7.540;2023-02-04T14:41:08;23.93;;;21.60;;
15454;SDS011;21057;51.024;7.540;2023-02-04T14:43:35;23.33;;;21.47;;
15454;SDS011;21057;51.024;7.540;2023-02-04T14:46:02;25.77;;;22.67;;
15454;SDS011;21057;51.024;7.540;2023-02-04T14:48:31;23.47;;;21.63;;
15454;SDS011;21057;51.024;7.540;2023-02-04T14:50:58;23.17;;;21.20;;
15454;SDS011;21057;51.024;7.540;2023-02-04T14:53:25;22.73;;;20.40;;
15454;SDS011;21057;51.024;7.540;2023-02-04T14:55:52;23.23;;;21.17;;
15454;SDS011;21057;51.024;7.540;2023-02-04T14:58:18;21.47;;;19.60;;
15454;SDS011;21057;51.024;7.540;2023-02-04T15:00:45;22.50;;;20.60;;